Time;durP1;ratioP1;P1;durP2;ratioP2;P2;SDS_P1;SDS_P2;PMS_P1;PMS_P2;Temp;Humidity;BMP_temperature;BMP_pressure;BME280_temperature;BME280_humidity;BME280_pressure;Samples;Min_cycle;Max_cycle;Signal;HPM_P1;HPM_P2
2023/01/10 00:01:32;;;;;;;28.93;5.50;;;;;;;;;;5049664;28;20044;-64
2023/01/10 00:03:58;;;;;;;25.90;5.53;;;;;;;;;;5048006;28;20053;-64
2023/01/10 00:06:25;;;;;;;29.07;5.30;;;;;;;;;;5050707;28;20457;-65
2023/01/10 00:08:51;;;;;;;27.47;6.10;;;;;;;;;;5049644;28;20067;-65
2023/01/10 00:14:01;;;;;;;31.70;5.40;;;;;;;;;;5047212;28;20089;-64
2023/01/10 00:16:28;;;;;;;26.40;5.53;;;;;;;;;;5057373;28;20098;-65
2023/01/10 00:18:54;;;;;;;23.70;5.80;;;;;;;;;;5069509;28;20091;-64
2023/01/10 00:21:20;;;;;;;34.50;6.10;;;;;;;;;;5061555;28;20056;-64
2023/01/10 00:23:47;;;;;;;30.17;5.77;;;;;;;;;;5031331;28;20068;-64
2023/01/10 00:26:14;;;;;;;28.97;6.27;;;;;;;;;;5048710;28;20051;-64
2023/01/10 00:28:41;;;;;;;27.37;5.33;;;;;;;;;;5048499;28;20048;-64
2023/01/10 00:31:10;;;;;;;23.53;6.53;;;;;;;;;;5048842;28;20518;-64
2023/01/10 00:33:37;;;;;;;26.93;6.03;;;;;;;;;;5042362;28;20098;-64
2023/01/10 00:36:04;;;;;;;23.03;5.63;;;;;;;;;;5059427;28;20499;-64
2023/01/10 00:38:34;;;;;;;29.77;6.20;;;;;;;;;;5047545;28;20103;-64
2023/01/10 00:41:01;;;;;;;26.37;5.10;;;;;;;;;;5048734;28;20046;-65
2023/01/10 00:46:12;;;;;;;33.17;6.30;;;;;;;;;;5048655;28;20053;-64
2023/01/10 00:48:39;;;;;;;51.30;6.27;;;;;;;;;;5047108;28;20045;-64
2023/01/10 00:51:05;;;;;;;25.13;6.13;;;;;;;;;;5048172;28;20045;-64
2023/01/10 00:53:32;;;;;;;31.07;6.87;;;;;;;;;;5047046;28;20049;-64
2023/01/10 00:55:58;;;;;;;27.40;7.70;;;;;;;;;;5048426;28;20053;-65
2023/01/10 00:58:24;;;;;;;25.30;5.47;;;;;;;;;;5054471;28;20527;-64
2023/01/10 01:00:50;;;;;;;21.47;4.40;;;;;;;;;;5067476;28;20131;-64
2023/01/10 01:03:17;;;;;;;20.67;4.30;;;;;;;;;;5067758;28;20047;-64
2023/01/10 01:05:44;;;;;;;32.63;4.83;;;;;;;;;;5068541;28;20044;-65
2023/01/10 01:08:10;;;;;;;35.70;6.87;;;;;;;;;;5068682;28;20116;-64
2023/01/10 01:10:37;;;;;;;31.73;5.73;;;;;;;;;;5067508;28;20044;-64
2023/01/10 01:13:10;;;;;;;26.00;4.20;;;;;;;;;;5067293;28;20052;-64
2023/01/10 01:15:36;;;;;;;21.88;4.30;;;;;;;;;;5060643;28;20049;-65
2023/01/10 01:18:03;;;;;;;22.70;4.33;;;;;;;;;;5049004;28;20479;-65
2023/01/10 01:20:29;;;;;;;30.73;4.57;;;;;;;;;;5047114;28;20048;-65
2023/01/10 01:22:55;;;;;;;24.13;4.90;;;;;;;;;;5047281;28;20044;-65
2023/01/10 01:25:21;;;;;;;22.87;4.63;;;;;;;;;;5051695;28;20048;-65
2023/01/10 01:27:47;;;;;;;28.30;4.47;;;;;;;;;;5050775;28;20891;-65
2023/01/10 01:30:14;;;;;;;21.10;3.53;;;;;;;;;;5058386;28;20506;-64
2023/01/10 01:32:40;;;;;;;23.37;4.83;;;;;;;;;;5071887;28;20113;-65
2023/01/10 01:35:07;;;;;;;20.53;4.57;;;;;;;;;;5072154;28;20094;-65
2023/01/10 01:37:33;;;;;;;28.17;4.30;;;;;;;;;;5070867;28;20047;-64
2023/01/10 01:39:59;;;;;;;29.37;6.50;;;;;;;;;;5071674;28;20411;-65
2023/01/10 01:42:25;;;;;;;24.17;3.80;;;;;;;;;;5071444;28;20043;-64
2023/01/10 01:45:20;;;;;;;20.73;3.80;;;;;;;;;;5054036;28;20059;-64
2023/01/10 01:47:49;;;;;;;23.40;4.27;;;;;;;;;;5066095;28;20076;-64
2023/01/10 01:50:19;;;;;;;26.13;5.13;;;;;;;;;;5050935;28;20051;-65
2023/01/10 01:52:46;;;;;;;31.53;7.20;;;;;;;;;;5051694;28;20392;-64
2023/01/10 01:55:12;;;;;;;21.80;3.53;;;;;;;;;;5050067;28;20052;-65
2023/01/10 01:57:38;;;;;;;25.77;3.90;;;;;;;;;;5051689;28;20052;-64
2023/01/10 02:00:04;;;;;;;28.13;4.77;;;;;;;;;;5050498;28;20134;-64
2023/01/10 02:02:33;;;;;;;47.37;6.10;;;;;;;;;;5052016;28;20052;-65
2023/01/10 02:05:04;;;;;;;26.37;4.13;;;;;;;;;;5051482;28;20037;-64
2023/01/10 02:07:33;;;;;;;26.33;6.07;;;;;;;;;;5053197;28;20036;-64
2023/01/10 02:10:02;;;;;;;21.07;4.33;;;;;;;;;;5051446;28;20048;-65
2023/01/10 02:12:29;;;;;;;26.63;5.60;;;;;;;;;;5051541;28;20045;-64
2023/01/10 02:14:55;;;;;;;22.13;4.23;;;;;;;;;;5051108;28;20044;-64
2023/01/10 02:17:21;;;;;;;22.03;5.10;;;;;;;;;;5054299;28;20044;-65
2023/01/10 02:19:55;;;;;;;21.73;4.90;;;;;;;;;;5053580;28;20049;-64
2023/01/10 02:22:21;;;;;;;;;;;;;;;;;;5071977;28;20098;-64
2023/01/10 02:24:58;;;;;;;26.40;4.03;;;;;;;;;;5071253;28;19920;-64
2023/01/10 02:27:48;;;;;;;22.27;4.97;;;;;;;;;;5069782;28;20048;-65
2023/01/10 02:30:37;;;;;;;28.53;5.37;;;;;;;;;;5065724;28;20555;-64
2023/01/10 02:33:23;;;;;;;22.53;4.23;;;;;;;;;;5049603;28;20056;-64
2023/01/10 02:35:59;;;;;;;17.40;4.30;;;;;;;;;;5045531;28;20057;-65
2023/01/10 02:38:36;;;;;;;27.33;4.67;;;;;;;;;;5059335;28;20075;-64
2023/01/10 02:41:09;;;;;;;23.50;4.17;;;;;;;;;;5071006;28;20464;-64
2023/01/10 02:43:40;;;;;;;23.35;4.45;;;;;;;;;;5069811;28;20045;-64
2023/01/10 02:46:13;;;;;;;20.77;3.73;;;;;;;;;;5069051;28;20048;-64
2023/01/10 02:48:39;;;;;;;20.60;4.43;;;;;;;;;;5068421;28;20060;-64
2023/01/10 02:51:22;;;;;;;26.57;4.90;;;;;;;;;;5056144;28;20041;-64
2023/01/10 02:53:57;;;;;;;23.98;4.03;;;;;;;;;;5050810;28;20389;-64
2023/01/10 02:56:42;;;;;;;28.17;3.80;;;;;;;;;;5050451;28;20049;-64
2023/01/10 02:59:22;;;;;;;17.60;4.37;;;;;;;;;;5064403;28;20044;-64
2023/01/10 03:02:07;;;;;;;28.70;4.10;;;;;;;;;;5067173;28;20051;-64
2023/01/10 03:04:33;;;;;;;27.73;3.67;;;;;;;;;;5050488;28;20187;-64
2023/01/10 03:07:05;;;;;;;23.00;4.73;;;;;;;;;;5048748;28;20060;-64
2023/01/10 03:09:33;;;;;;;23.37;3.93;;;;;;;;;;5067523;28;20049;-64
2023/01/10 03:12:11;;;;;;;22.10;3.30;;;;;;;;;;5070482;28;20490;-64
2023/01/10 03:14:38;;;;;;;22.33;3.47;;;;;;;;;;5069364;28;20040;-64
2023/01/10 03:17:05;;;;;;;22.63;4.60;;;;;;;;;;5070371;28;20048;-65
2023/01/10 03:19:34;;;;;;;28.23;6.17;;;;;;;;;;5051976;28;20048;-65
2023/01/10 03:22:02;;;;;;;19.87;4.47;;;;;;;;;;5050077;28;20091;-64
2023/01/10 03:24:32;;;;;;;27.17;4.77;;;;;;;;;;5049958;28;20052;-64
2023/01/10 03:27:18;;;;;;;16.77;3.83;;;;;;;;;;5050405;28;20044;-64
2023/01/10 03:29:44;;;;;;;17.83;4.20;;;;;;;;;;5049840;28;20060;-65
2023/01/10 03:32:11;;;;;;;20.37;3.63;;;;;;;;;;5069433;28;20041;-65
2023/01/10 03:34:38;;;;;;;29.83;4.60;;;;;;;;;;5069974;28;20127;-65
2023/01/10 03:37:17;;;;;;;21.30;4.43;;;;;;;;;;5066746;28;20056;-65
2023/01/10 03:40:03;;;;;;;19.97;4.60;;;;;;;;;;5067173;28;20056;-65
2023/01/10 03:44:42;;;;;;;27.27;4.90;;;;;;;;;;5069807;28;20045;-65
2023/01/10 03:45:24;;;;;;;37.83;4.40;;;;;;;;;;5069242;28;20064;-66
2023/01/10 03:47:52;;;;;;;18.77;4.27;;;;;;;;;;5069034;28;20106;-65
2023/01/10 03:50:20;;;;;;;20.60;4.63;;;;;;;;;;5069870;28;20533;-66
2023/01/10 03:52:46;;;;;;;32.30;5.53;;;;;;;;;;5069316;28;20045;-65
2023/01/10 03:55:14;;;;;;;32.97;5.47;;;;;;;;;;5069123;28;20036;-65
2023/01/10 03:57:47;;;;;;;32.93;5.43;;;;;;;;;;5068911;28;20131;-65
2023/01/10 04:00:14;;;;;;;33.72;6.53;;;;;;;;;;5068812;28;20040;-65
2023/01/10 04:02:40;;;;;;;24.07;4.77;;;;;;;;;;5062084;28;20049;-65
2023/01/10 04:05:06;;;;;;;26.73;4.90;;;;;;;;;;5049338;28;20049;-66
2023/01/10 04:07:33;;;;;;;20.50;5.37;;;;;;;;;;5049621;28;20502;-66
2023/01/10 04:09:59;;;;;;;29.07;5.20;;;;;;;;;;5048133;28;20124;-66
2023/01/10 04:12:26;;;;;;;35.97;5.07;;;;;;;;;;5049323;28;20088;-66
2023/01/10 04:14:52;;;;;;;35.33;5.13;;;;;;;;;;5049341;28;20056;-65
2023/01/10 04:17:18;;;;;;;32.50;5.87;;;;;;;;;;5049034;28;20040;-65
2023/01/10 04:19:44;;;;;;;35.20;6.73;;;;;;;;;;5057371;28;20061;-65
2023/01/10 04:22:11;;;;;;;32.60;5.03;;;;;;;;;;5049306;28;20045;-65
2023/01/10 04:24:37;;;;;;;25.53;5.00;;;;;;;;;;5031202;28;20049;-65
2023/01/10 04:27:03;;;;;;;36.17;6.53;;;;;;;;;;5049251;28;20049;-64
2023/01/10 04:29:30;;;;;;;27.53;6.90;;;;;;;;;;5047498;28;20127;-65
2023/01/10 04:31:56;;;;;;;22.13;3.90;;;;;;;;;;5047824;28;20045;-65
2023/01/10 04:34:22;;;;;;;41.87;7.73;;;;;;;;;;5049011;28;20124;-65
2023/01/10 04:36:49;;;;;;;25.67;4.97;;;;;;;;;;5048806;28;20670;-65
2023/01/10 04:39:15;;;;;;;35.80;6.53;;;;;;;;;;5047487;28;20049;-65
2023/01/10 04:41:41;;;;;;;31.00;5.30;;;;;;;;;;5048531;28;20041;-65
2023/01/10 04:44:07;;;;;;;34.47;5.67;;;;;;;;;;5048709;28;20049;-65
2023/01/10 04:46:33;;;;;;;23.63;3.90;;;;;;;;;;5047440;28;20053;-65
2023/01/10 04:48:59;;;;;;;33.03;5.03;;;;;;;;;;5057948;28;20040;-65
2023/01/10 04:51:26;;;;;;;36.63;7.50;;;;;;;;;;5067727;28;20058;-65
2023/01/10 04:53:52;;;;;;;33.90;5.33;;;;;;;;;;5068684;28;20048;-65
2023/01/10 04:56:20;;;;;;;34.07;6.03;;;;;;;;;;5056298;28;20095;-65
2023/01/10 04:58:47;;;;;;;25.87;4.57;;;;;;;;;;5055186;28;20160;-65
2023/01/10 05:01:23;;;;;;;22.20;5.13;;;;;;;;;;5068614;28;20052;-65
2023/01/10 05:03:50;;;;;;;28.77;4.87;;;;;;;;;;5068669;28;20119;-65
2023/01/10 05:06:16;;;;;;;40.27;5.17;;;;;;;;;;5066056;28;20091;-64
2023/01/10 05:08:42;;;;;;;35.53;5.40;;;;;;;;;;5046878;28;20511;-64
2023/01/10 05:11:09;;;;;;;32.87;5.00;;;;;;;;;;5048247;28;20076;-65
2023/01/10 05:13:35;;;;;;;39.23;6.33;;;;;;;;;;5047168;28;20133;-64
2023/01/10 05:16:01;;;;;;;35.50;6.60;;;;;;;;;;5048251;28;20562;-64
2023/01/10 05:18:28;;;;;;;34.63;5.80;;;;;;;;;;5050818;28;20044;-65
2023/01/10 05:20:59;;;;;;;32.80;5.00;;;;;;;;;;5068304;28;20068;-65
2023/01/10 05:23:25;;;;;;;33.43;4.57;;;;;;;;;;5068127;28;20419;-65
2023/01/10 05:25:51;;;;;;;24.20;5.13;;;;;;;;;;5068308;28;20498;-65
2023/01/10 05:28:17;;;;;;;31.40;5.57;;;;;;;;;;5067225;28;20040;-65
2023/01/10 05:30:43;;;;;;;31.90;5.63;;;;;;;;;;5067785;28;20044;-65
2023/01/10 05:33:09;;;;;;;41.23;6.80;;;;;;;;;;5050321;28;20055;-65
2023/01/10 05:35:35;;;;;;;33.27;6.07;;;;;;;;;;5047939;28;20403;-65
2023/01/10 05:38:01;;;;;;;30.07;5.70;;;;;;;;;;5048026;28;20045;-65
2023/01/10 05:40:27;;;;;;;27.37;5.50;;;;;;;;;;5050704;28;20058;-65
2023/01/10 05:42:53;;;;;;;24.17;4.83;;;;;;;;;;5046767;28;20053;-64
2023/01/10 05:45:19;;;;;;;37.07;7.03;;;;;;;;;;5029952;28;20060;-65
2023/01/10 05:47:45;;;;;;;22.40;5.33;;;;;;;;;;5047726;28;20056;-64
2023/01/10 05:50:11;;;;;;;36.47;7.30;;;;;;;;;;5046606;28;20048;-65
2023/01/10 05:52:37;;;;;;;34.93;6.83;;;;;;;;;;5047169;28;20041;-65
2023/01/10 05:55:03;;;;;;;46.77;6.97;;;;;;;;;;5047827;28;20041;-65
2023/01/10 05:57:29;;;;;;;21.97;5.17;;;;;;;;;;5047697;28;20110;-65
2023/01/10 05:59:55;;;;;;;27.33;6.60;;;;;;;;;;5061866;28;20090;-64
2023/01/10 06:02:22;;;;;;;27.27;6.90;;;;;;;;;;5048142;28;20084;-65
2023/01/10 06:04:48;;;;;;;39.23;6.63;;;;;;;;;;5048004;28;20061;-64
2023/01/10 06:07:14;;;;;;;29.97;6.17;;;;;;;;;;5048601;28;20419;-65
2023/01/10 06:09:40;;;;;;;36.07;6.20;;;;;;;;;;5047615;28;20106;-65
2023/01/10 06:12:06;;;;;;;30.17;5.87;;;;;;;;;;5050778;28;20468;-65
2023/01/10 06:14:32;;;;;;;44.57;8.57;;;;;;;;;;5051519;28;20491;-65
2023/01/10 06:16:58;;;;;;;33.37;7.20;;;;;;;;;;5051603;28;20386;-65
2023/01/10 06:19:24;;;;;;;29.10;6.63;;;;;;;;;;5061439;28;20044;-64
2023/01/10 06:21:50;;;;;;;32.03;7.33;;;;;;;;;;5070812;28;20049;-65
2023/01/10 06:24:16;;;;;;;27.57;6.17;;;;;;;;;;5069951;28;20084;-65
2023/01/10 06:26:42;;;;;;;29.23;6.37;;;;;;;;;;5070928;28;20041;-65
2023/01/10 06:29:08;;;;;;;35.90;7.03;;;;;;;;;;5063481;28;20044;-65
2023/01/10 06:31:34;;;;;;;34.83;7.93;;;;;;;;;;5050870;28;20132;-64
2023/01/10 06:34:00;;;;;;;29.20;5.97;;;;;;;;;;5050829;28;20394;-64
2023/01/10 06:36:26;;;;;;;39.60;8.33;;;;;;;;;;5051169;28;20495;-65
2023/01/10 06:38:53;;;;;;;41.83;6.27;;;;;;;;;;5051177;28;20130;-65
2023/01/10 06:41:19;;;;;;;43.07;7.90;;;;;;;;;;5056658;28;20044;-64
2023/01/10 06:43:46;;;;;;;31.13;7.93;;;;;;;;;;5059608;28;20054;-64
2023/01/10 06:46:16;;;;;;;40.33;7.90;;;;;;;;;;5050544;28;20115;-65
2023/01/10 06:48:44;;;;;;;33.93;7.10;;;;;;;;;;5050124;28;20049;-65
2023/01/10 06:51:10;;;;;;;36.83;8.23;;;;;;;;;;5054015;28;20040;-65
2023/01/10 06:53:36;;;;;;;43.77;8.17;;;;;;;;;;5069943;28;20103;-65
2023/01/10 06:56:04;;;;;;;37.10;8.13;;;;;;;;;;5064749;28;20048;-64
2023/01/10 06:58:30;;;;;;;27.43;6.57;;;;;;;;;;5070658;28;20503;-65
2023/01/10 07:00:56;;;;;;;35.40;8.13;;;;;;;;;;5069983;28;20051;-65
2023/01/10 07:03:22;;;;;;;42.90;7.73;;;;;;;;;;5070993;28;20055;-64
2023/01/10 07:05:49;;;;;;;47.50;7.57;;;;;;;;;;5070878;28;20044;-65
2023/01/10 07:08:15;;;;;;;28.17;6.93;;;;;;;;;;5070793;28;20048;-65
2023/01/10 07:10:42;;;;;;;34.83;6.50;;;;;;;;;;5053822;28;20119;-65
2023/01/10 07:13:08;;;;;;;37.20;7.40;;;;;;;;;;5049430;28;20041;-66
2023/01/10 07:15:34;;;;;;;30.47;7.97;;;;;;;;;;5049493;28;20041;-65
2023/01/10 07:18:00;;;;;;;32.27;7.10;;;;;;;;;;5070595;28;20040;-66
2023/01/10 07:20:26;;;;;;;37.03;7.63;;;;;;;;;;5057356;28;20086;-66
2023/01/10 07:22:56;;;;;;;45.57;8.50;;;;;;;;;;5049538;28;20045;-66
2023/01/10 07:25:23;;;;;;;36.07;9.53;;;;;;;;;;5049713;28;20407;-66
2023/01/10 07:27:49;;;;;;;37.60;8.50;;;;;;;;;;5069034;28;20051;-66
2023/01/10 07:30:15;;;;;;;38.67;8.90;;;;;;;;;;5061746;28;20044;-66
2023/01/10 07:32:41;;;;;;;35.60;9.23;;;;;;;;;;5067042;28;20048;-66
2023/01/10 07:35:07;;;;;;;35.53;8.37;;;;;;;;;;5058556;28;20041;-66
2023/01/10 07:37:33;;;;;;;42.87;8.70;;;;;;;;;;5058792;28;20057;-65
2023/01/10 07:39:59;;;;;;;34.20;7.97;;;;;;;;;;5070193;28;20506;-65
2023/01/10 07:42:25;;;;;;;39.50;9.07;;;;;;;;;;5067925;28;20048;-65
2023/01/10 07:44:51;;;;;;;31.97;7.60;;;;;;;;;;5068968;28;20122;-66
2023/01/10 07:47:17;;;;;;;41.00;8.73;;;;;;;;;;5067128;28;20540;-66
2023/01/10 07:49:43;;;;;;;44.00;8.27;;;;;;;;;;5055356;28;20044;-66
2023/01/10 07:52:09;;;;;;;30.67;8.60;;;;;;;;;;5067478;28;20287;-65
2023/01/10 07:54:35;;;;;;;32.87;6.60;;;;;;;;;;5068780;28;20044;-66
2023/01/10 07:57:02;;;;;;;44.07;8.70;;;;;;;;;;5068669;28;20052;-66
2023/01/10 07:59:28;;;;;;;39.20;7.87;;;;;;;;;;5068858;28;20516;-66
2023/01/10 08:01:54;;;;;;;39.37;8.03;;;;;;;;;;5062925;28;20098;-66
2023/01/10 08:04:20;;;;;;;33.90;9.20;;;;;;;;;;5064047;28;20052;-66
2023/01/10 08:06:46;;;;;;;34.90;7.97;;;;;;;;;;5068980;28;20045;-66
2023/01/10 08:09:12;;;;;;;40.10;8.30;;;;;;;;;;5068787;28;20084;-66
2023/01/10 08:11:38;;;;;;;36.87;8.57;;;;;;;;;;5068636;28;20418;-66
2023/01/10 08:14:04;;;;;;;47.60;11.80;;;;;;;;;;5061913;28;20131;-66
2023/01/10 08:16:30;;;;;;;33.87;9.47;;;;;;;;;;5056548;28;20080;-66
2023/01/10 08:18:56;;;;;;;33.10;8.93;;;;;;;;;;5067968;28;20410;-66
2023/01/10 08:21:23;;;;;;;33.63;7.83;;;;;;;;;;5042602;28;20045;-66
2023/01/10 08:23:50;;;;;;;32.80;7.13;;;;;;;;;;5067164;28;20064;-66
2023/01/10 08:26:16;;;;;;;40.57;7.70;;;;;;;;;;5068349;28;20402;-67
2023/01/10 08:28:42;;;;;;;32.93;7.47;;;;;;;;;;5066421;28;20044;-67
2023/01/10 08:31:09;;;;;;;29.00;7.53;;;;;;;;;;5064749;28;20472;-64
2023/01/10 08:33:37;;;;;;;43.63;8.77;;;;;;;;;;5066064;28;20040;-64
2023/01/10 08:36:03;;;;;;;43.03;8.20;;;;;;;;;;5067652;28;20054;-64
2023/01/10 08:38:29;;;;;;;33.97;8.27;;;;;;;;;;5051180;28;20056;-66
2023/01/10 08:40:57;;;;;;;40.97;10.00;;;;;;;;;;5055580;28;20094;-66
2023/01/10 08:43:23;;;;;;;33.57;6.73;;;;;;;;;;5052393;28;20065;-67
2023/01/10 08:45:49;;;;;;;40.47;8.63;;;;;;;;;;5068736;28;20114;-66
2023/01/10 08:48:15;;;;;;;36.10;7.63;;;;;;;;;;5068088;28;20056;-65
2023/01/10 08:50:41;;;;;;;26.83;7.67;;;;;;;;;;5066698;28;20514;-65
2023/01/10 08:53:07;;;;;;;36.07;7.83;;;;;;;;;;5068221;28;20119;-66
2023/01/10 08:55:36;;;;;;;40.50;8.10;;;;;;;;;;5066696;28;20048;-65
2023/01/10 08:58:02;;;;;;;42.03;7.37;;;;;;;;;;5064177;28;20071;-65
2023/01/10 09:00:29;;;;;;;31.03;7.20;;;;;;;;;;5064118;28;20059;-66
2023/01/10 09:02:55;;;;;;;33.10;6.67;;;;;;;;;;5068038;28;20522;-65
2023/01/10 09:05:21;;;;;;;34.77;6.80;;;;;;;;;;5068021;28;20051;-65
2023/01/10 09:07:47;;;;;;;42.57;7.77;;;;;;;;;;5064979;28;20148;-65
2023/01/10 09:10:13;;;;;;;25.20;6.23;;;;;;;;;;5066123;28;20497;-65
2023/01/10 09:12:55;;;;;;;42.33;8.97;;;;;;;;;;5068055;28;20052;-65
2023/01/10 09:15:25;;;;;;;38.87;6.87;;;;;;;;;;5066824;28;20072;-66
2023/01/10 09:17:54;;;;;;;29.33;6.60;;;;;;;;;;5037597;28;20052;-66
2023/01/10 09:20:21;;;;;;;34.23;8.00;;;;;;;;;;5067383;28;20076;-66
2023/01/10 09:22:47;;;;;;;28.80;6.77;;;;;;;;;;5062587;28;20083;-66
2023/01/10 09:25:13;;;;;;;26.20;6.60;;;;;;;;;;5066364;28;20055;-65
2023/01/10 09:27:39;;;;;;;44.47;7.43;;;;;;;;;;5067668;28;20097;-65
2023/01/10 09:30:05;;;;;;;37.70;7.87;;;;;;;;;;5066055;28;20796;-65
2023/01/10 09:32:31;;;;;;;36.23;7.37;;;;;;;;;;5064793;28;20639;-66
2023/01/10 09:34:57;;;;;;;34.00;7.40;;;;;;;;;;5066139;28;20052;-65
2023/01/10 09:37:23;;;;;;;33.00;7.50;;;;;;;;;;5050715;28;20061;-66
2023/01/10 09:39:51;;;;;;;27.80;6.87;;;;;;;;;;5065679;28;20041;-66
2023/01/10 09:42:27;;;;;;;38.13;8.20;;;;;;;;;;5048699;28;20415;-66
2023/01/10 09:45:09;;;;;;;29.77;7.33;;;;;;;;;;5051837;28;20056;-65
2023/01/10 09:47:54;;;;;;;35.50;8.43;;;;;;;;;;5060768;28;20057;-65
2023/01/10 09:50:23;;;;;;;41.60;9.10;;;;;;;;;;5063561;28;20061;-66
2023/01/10 09:52:52;;;;;;;38.70;8.87;;;;;;;;;;5067186;28;20528;-66
2023/01/10 09:55:35;;;;;;;37.97;11.03;;;;;;;;;;5069399;28;20410;-65
2023/01/10 09:58:05;;;;;;;37.13;9.77;;;;;;;;;;5070290;28;20045;-65
2023/01/10 10:00:38;;;;;;;49.77;11.43;;;;;;;;;;5070312;28;20052;-65
2023/01/10 10:03:05;;;;;;;48.78;13.15;;;;;;;;;;5070978;28;20076;-66
2023/01/10 10:05:31;;;;;;;45.87;10.93;;;;;;;;;;5070379;28;20144;-66
2023/01/10 10:08:01;;;;;;;39.60;11.70;;;;;;;;;;5050832;28;20795;-65
2023/01/10 10:10:47;;;;;;;38.83;11.03;;;;;;;;;;5067346;28;20084;-66
2023/01/10 10:13:40;;;;;;;34.30;11.23;;;;;;;;;;5069447;28;20512;-65
2023/01/10 10:16:15;;;;;;;41.60;13.83;;;;;;;;;;5069387;28;20144;-65
2023/01/10 10:19:00;;;;;;;43.20;11.70;;;;;;;;;;5069225;28;20036;-66
2023/01/10 10:21:34;;;;;;;30.93;10.53;;;;;;;;;;5060260;28;20149;-65
2023/01/10 10:24:21;;;;;;;42.27;12.47;;;;;;;;;;5061977;28;20133;-65
2023/01/10 10:26:47;;;;;;;45.10;11.70;;;;;;;;;;5063587;28;20053;-66
2023/01/10 10:29:33;;;;;;;37.77;11.47;;;;;;;;;;5065353;28;20049;-65
2023/01/10 10:32:05;;;;;;;45.10;12.50;;;;;;;;;;5054981;28;20045;-65
2023/01/10 10:34:38;;;;;;;44.42;13.15;;;;;;;;;;5055350;28;20378;-65
2023/01/10 10:37:10;;;;;;;35.03;11.80;;;;;;;;;;5066550;28;20052;-64
2023/01/10 10:39:38;;;;;;;37.17;11.43;;;;;;;;;;5060846;28;20449;-65
2023/01/10 10:42:09;;;;;;;39.87;11.07;;;;;;;;;;5065568;28;20041;-66
2023/01/10 10:44:39;;;;;;;37.07;12.13;;;;;;;;;;5061872;28;20060;-65
2023/01/10 10:47:19;;;;;;;41.77;11.50;;;;;;;;;;5064709;28;20732;-65
2023/01/10 10:49:59;;;;;;;31.13;8.67;;;;;;;;;;5065221;28;20064;-65
2023/01/10 10:52:33;;;;;;;40.40;9.60;;;;;;;;;;5066255;28;20049;-65
2023/01/10 10:55:00;;;;;;;39.57;11.57;;;;;;;;;;5067746;28;20249;-65
2023/01/10 10:57:31;;;;;;;30.77;8.87;;;;;;;;;;5058981;28;20459;-65
2023/01/10 10:59:58;;;;;;;36.77;8.93;;;;;;;;;;5066117;28;20052;-65
2023/01/10 11:02:31;;;;;;;33.07;9.07;;;;;;;;;;5065730;28;20573;-65
2023/01/10 11:05:04;;;;;;;41.22;9.70;;;;;;;;;;5068559;28;20045;-65
2023/01/10 11:07:35;;;;;;;39.78;9.80;;;;;;;;;;5068650;28;20245;-65
2023/01/10 11:12:51;;;;;;;39.00;9.67;;;;;;;;;;5068326;28;20045;-65
2023/01/10 11:15:36;;;;;;;35.60;7.67;;;;;;;;;;5059655;28;20052;-65
2023/01/10 11:18:22;;;;;;;33.17;7.87;;;;;;;;;;5068819;28;20055;-65
2023/01/10 11:20:58;;;;;;;30.20;8.47;;;;;;;;;;5049186;28;20057;-65
2023/01/10 11:23:40;;;;;;;32.00;8.03;;;;;;;;;;5069022;28;20071;-64
2023/01/10 11:26:08;;;;;;;36.57;7.40;;;;;;;;;;5067868;28;20059;-65
2023/01/10 11:28:34;;;;;;;29.10;7.10;;;;;;;;;;5064815;28;20041;-65
2023/01/10 11:31:01;;;;;;;32.80;6.07;;;;;;;;;;5057278;28;20045;-65
2023/01/10 11:33:34;;;;;;;32.50;8.40;;;;;;;;;;5054162;28;20075;-65
2023/01/10 11:36:01;;;;;;;29.00;6.78;;;;;;;;;;5054832;28;20084;-65
2023/01/10 11:38:29;;;;;;;29.57;6.67;;;;;;;;;;5047475;28;20052;-65
2023/01/10 11:40:58;;;;;;;32.13;7.53;;;;;;;;;;5047576;28;20047;-65
2023/01/10 11:43:27;;;;;;;33.83;6.63;;;;;;;;;;5047605;28;20110;-65
2023/01/10 11:46:01;;;;;;;27.80;7.40;;;;;;;;;;5047290;28;20490;-65
2023/01/10 11:48:27;;;;;;;37.73;7.57;;;;;;;;;;5046941;28;20098;-65
2023/01/10 11:50:55;;;;;;;28.30;6.50;;;;;;;;;;5046904;28;20454;-64
2023/01/10 11:53:30;;;;;;;34.90;6.77;;;;;;;;;;5055886;28;20124;-64
2023/01/10 11:55:56;;;;;;;26.87;6.00;;;;;;;;;;5067020;28;20049;-64
2023/01/10 11:58:22;;;;;;;37.87;6.47;;;;;;;;;;5066786;28;20057;-64
2023/01/10 12:00:49;;;;;;;35.43;7.60;;;;;;;;;;5068302;28;20049;-65
2023/01/10 12:03:28;;;;;;;36.87;7.60;;;;;;;;;;5066987;28;20056;-65
2023/01/10 12:05:55;;;;;;;28.77;6.37;;;;;;;;;;5067923;28;20049;-64
2023/01/10 12:08:24;;;;;;;35.43;6.27;;;;;;;;;;5068667;28;20466;-65
2023/01/10 12:11:02;;;;;;;32.53;6.43;;;;;;;;;;5067489;28;20049;-65
2023/01/10 12:13:30;;;;;;;25.07;5.60;;;;;;;;;;5067243;28;20097;-65
2023/01/10 12:16:14;;;;;;;31.33;6.57;;;;;;;;;;5066744;28;20044;-64
2023/01/10 12:18:41;;;;;;;27.93;7.20;;;;;;;;;;5060118;28;20041;-64
2023/01/10 12:21:07;;;;;;;35.53;6.90;;;;;;;;;;5048622;28;20077;-65
2023/01/10 12:23:39;;;;;;;28.43;7.23;;;;;;;;;;5047172;28;20045;-64
2023/01/10 12:26:06;;;;;;;34.30;8.17;;;;;;;;;;5048511;28;20055;-64
2023/01/10 12:28:32;;;;;;;27.07;6.03;;;;;;;;;;5047876;28;20041;-64
2023/01/10 12:30:59;;;;;;;31.33;7.60;;;;;;;;;;5046899;28;20048;-64
2023/01/10 12:33:32;;;;;;;32.60;7.50;;;;;;;;;;5055243;28;20040;-64
2023/01/10 12:36:18;;;;;;;34.83;7.82;;;;;;;;;;5068239;28;20461;-64
2023/01/10 12:39:03;;;;;;;31.77;7.97;;;;;;;;;;5056905;28;20052;-65
2023/01/10 12:44:22;;;;;;;27.90;6.43;;;;;;;;;;5068155;28;20048;-64
2023/01/10 12:47:00;;;;;;;30.97;8.20;;;;;;;;;;5068120;28;20079;-63
2023/01/10 12:49:28;;;;;;;32.83;6.53;;;;;;;;;;5048903;28;20045;-64
2023/01/10 12:51:58;;;;;;;29.03;6.57;;;;;;;;;;5058161;28;20558;-64
2023/01/10 12:54:26;;;;;;;30.73;6.83;;;;;;;;;;5067804;28;20056;-64
2023/01/10 12:56:53;;;;;;;35.10;7.70;;;;;;;;;;5067513;28;20047;-64
2023/01/10 12:59:25;;;;;;;33.17;6.50;;;;;;;;;;5067734;28;20542;-64
2023/01/10 13:01:52;;;;;;;22.70;6.80;;;;;;;;;;5068104;28;20179;-64
2023/01/10 13:04:21;;;;;;;26.03;6.13;;;;;;;;;;5067886;28;20045;-64
2023/01/10 13:06:48;;;;;;;21.90;6.10;;;;;;;;;;5067694;28;20096;-64
2023/01/10 13:09:19;;;;;;;30.53;6.63;;;;;;;;;;5066964;28;20604;-64
2023/01/10 13:11:51;;;;;;;34.07;6.40;;;;;;;;;;5067951;28;20106;-64
2023/01/10 13:14:19;;;;;;;32.37;6.93;;;;;;;;;;5050358;28;20183;-64
2023/01/10 13:16:48;;;;;;;25.60;6.00;;;;;;;;;;5047750;28;20106;-64
2023/01/10 13:19:18;;;;;;;26.60;6.23;;;;;;;;;;5045999;28;20048;-64
2023/01/10 13:21:45;;;;;;;30.30;5.90;;;;;;;;;;5051821;28;20064;-64
2023/01/10 13:24:14;;;;;;;28.10;5.97;;;;;;;;;;5051944;28;20140;-64
2023/01/10 13:26:46;;;;;;;32.33;6.20;;;;;;;;;;5051915;28;20169;-64
2023/01/10 13:29:16;;;;;;;24.50;6.80;;;;;;;;;;5057416;28;20047;-64
2023/01/10 13:31:43;;;;;;;33.47;6.00;;;;;;;;;;5071714;28;20056;-64
2023/01/10 13:34:11;;;;;;;30.17;6.53;;;;;;;;;;5071572;28;20486;-64
2023/01/10 13:36:39;;;;;;;29.70;6.50;;;;;;;;;;5071330;28;20084;-64
2023/01/10 13:39:10;;;;;;;30.23;5.87;;;;;;;;;;5070038;28;20052;-64
2023/01/10 13:44:59;;;;;;;26.92;6.85;;;;;;;;;;5050169;28;20052;-64
2023/01/10 13:47:42;;;;;;;24.73;6.20;;;;;;;;;;5051316;28;20134;-64
2023/01/10 13:50:23;;;;;;;27.30;6.38;;;;;;;;;;5050812;28;20498;-64
2023/01/10 13:52:49;;;;;;;23.30;5.20;;;;;;;;;;5050015;28;20049;-64
2023/01/10 13:55:34;;;;;;;24.77;4.93;;;;;;;;;;5050955;28;20055;-64
2023/01/10 13:58:03;;;;;;;35.00;6.03;;;;;;;;;;5051144;28;20077;-64
2023/01/10 14:03:49;;;;;;;28.83;5.37;;;;;;;;;;5051202;28;20053;-64
2023/01/10 14:06:31;;;;;;;29.73;6.30;;;;;;;;;;5045534;28;20045;-64
2023/01/10 14:09:12;;;;;;;21.77;5.05;;;;;;;;;;5055856;28;20049;-64
2023/01/10 14:11:47;;;;;;;30.00;6.97;;;;;;;;;;5068370;28;20045;-64
2023/01/10 14:14:16;;;;;;;37.43;6.17;;;;;;;;;;5055630;28;20053;-64
2023/01/10 14:16:44;;;;;;;18.10;5.67;;;;;;;;;;5059203;28;20461;-64
2023/01/10 14:19:21;;;;;;;26.00;5.10;;;;;;;;;;5054844;28;20036;-64
2023/01/10 14:21:50;;;;;;;19.57;4.90;;;;;;;;;;5052795;28;20048;-64
2023/01/10 14:24:27;;;;;;;26.37;5.70;;;;;;;;;;5070388;28;20204;-64
2023/01/10 14:26:54;;;;;;;24.33;5.97;;;;;;;;;;5070786;28;20423;-64
2023/01/10 14:29:21;;;;;;;30.13;5.83;;;;;;;;;;5069301;28;20045;-64
2023/01/10 14:31:48;;;;;;;26.77;5.00;;;;;;;;;;5069333;28;20438;-64
2023/01/10 14:34:35;;;;;;;23.27;4.83;;;;;;;;;;5063113;28;20041;-64
2023/01/10 14:37:03;;;;;;;20.33;4.37;;;;;;;;;;5061864;28;20445;-64
2023/01/10 14:39:30;;;;;;;26.87;4.73;;;;;;;;;;5068902;28;20597;-64
2023/01/10 14:41:59;;;;;;;21.47;5.00;;;;;;;;;;5069144;28;20483;-64
2023/01/10 14:44:28;;;;;;;24.70;5.07;;;;;;;;;;5069121;28;20448;-64
2023/01/10 14:46:55;;;;;;;20.77;5.37;;;;;;;;;;5070312;28;20145;-64
2023/01/10 14:49:21;;;;;;;24.77;5.50;;;;;;;;;;5069375;28;20054;-64
2023/01/10 14:51:50;;;;;;;31.40;6.03;;;;;;;;;;5069928;28;20049;-64
2023/01/10 14:54:18;;;;;;;23.87;4.77;;;;;;;;;;5070141;28;20048;-64
2023/01/10 14:56:48;;;;;;;22.40;4.53;;;;;;;;;;5068788;28;20406;-64
2023/01/10 14:59:35;;;;;;;21.57;4.90;;;;;;;;;;5069005;28;20047;-64